createdAt,value
2018-08-10T00:00:06.770Z,22.17
2018-08-10T00:01:06.761Z,22.07
2018-08-10T00:02:06.748Z,22.17
2018-08-10T00:03:06.733Z,22.06
2018-08-10T00:04:06.723Z,22.05
2018-08-10T00:05:06.712Z,22.10
2018-08-10T00:06:06.701Z,22.14
2018-08-10T00:07:06.690Z,22.02
2018-08-10T00:08:06.677Z,22.09
2018-08-10T00:09:06.668Z,22.03
2018-08-10T00:10:06.655Z,22.05
2018-08-10T00:11:06.644Z,22.12
2018-08-10T00:12:06.631Z,21.94
2018-08-10T00:13:49.152Z,21.92
2018-08-10T00:14:49.154Z,21.99
2018-08-10T00:15:49.151Z,21.96
2018-08-10T00:16:49.133Z,21.86
2018-08-10T00:17:49.334Z,21.83
2018-08-10T00:18:50.002Z,21.84
2018-08-10T00:29:44.759Z,21.77
2018-08-10T00:31:15.532Z,21.69
2018-08-10T00:32:15.838Z,21.79
2018-08-10T00:33:15.522Z,21.59
2018-08-10T00:38:22.068Z,21.62
2018-08-10T00:45:15.365Z,21.58
2018-08-10T00:46:16.709Z,21.61
2018-08-10T00:48:15.327Z,21.58
2018-08-10T00:49:15.316Z,21.64
2018-08-10T00:50:15.305Z,21.67
2018-08-10T00:51:15.295Z,21.62
2018-08-10T00:55:15.248Z,21.62
2018-08-10T00:56:15.232Z,21.56
2018-08-10T01:00:15.187Z,21.58
2018-08-10T01:01:15.174Z,21.53
2018-08-10T01:02:15.161Z,21.56
2018-08-10T01:03:15.152Z,21.43
2018-08-10T01:04:15.135Z,21.47
2018-08-10T01:05:15.126Z,21.46
2018-08-10T01:06:15.118Z,21.42
2018-08-10T01:07:15.101Z,21.47
2018-08-10T01:08:15.088Z,21.42
2018-08-10T01:09:15.076Z,21.49
2018-08-10T01:10:15.065Z,21.43
2018-08-10T01:11:15.053Z,21.47
2018-08-10T01:12:15.040Z,21.43
2018-08-10T01:13:15.051Z,21.49
2018-08-10T01:14:15.022Z,21.38
2018-08-10T01:15:15.008Z,21.50
2018-08-10T01:16:14.995Z,21.40
2018-08-10T01:24:14.897Z,21.37
2018-08-10T01:25:14.887Z,21.37
2018-08-10T01:27:14.858Z,21.38
2018-08-10T01:28:14.882Z,21.25
2018-08-10T01:29:14.837Z,21.29
2018-08-10T01:30:14.820Z,21.28
2018-08-10T01:31:14.810Z,21.29
2018-08-10T01:32:14.795Z,21.31
2018-08-10T01:33:14.788Z,21.28
2018-08-10T01:34:14.775Z,21.28
2018-08-10T01:35:14.760Z,21.28
2018-08-10T01:36:14.746Z,21.28
2018-08-10T01:37:14.736Z,21.25
2018-08-10T01:38:14.723Z,21.31
2018-08-10T01:39:14.710Z,21.25
2018-08-10T01:40:15.911Z,21.28
2018-08-10T01:41:14.686Z,21.29
2018-08-10T01:42:14.674Z,21.27
2018-08-10T01:43:14.662Z,21.29
2018-08-10T01:44:14.657Z,21.27
2018-08-10T01:45:14.638Z,21.28
2018-08-10T01:46:14.626Z,21.24
2018-08-10T01:47:14.612Z,21.24
2018-08-10T01:48:14.600Z,21.27
2018-08-10T01:49:14.587Z,21.22
2018-08-10T01:50:14.575Z,21.17
2018-08-10T01:51:14.562Z,21.14
2018-08-10T01:52:14.550Z,21.25
2018-08-10T01:55:14.514Z,21.16
2018-08-10T01:56:14.506Z,21.22
2018-08-10T01:57:14.487Z,21.14
2018-08-10T01:58:14.476Z,21.19
2018-08-10T01:59:14.465Z,21.16
2018-08-10T02:00:14.450Z,21.14
2018-08-10T02:01:14.437Z,21.03
2018-08-10T02:02:14.426Z,21.03
2018-08-10T02:03:14.413Z,21.09
2018-08-10T02:04:14.400Z,21.01
2018-08-10T02:05:14.389Z,20.98
2018-08-10T02:06:14.375Z,21.14
2018-08-10T02:07:14.365Z,20.99
2018-08-10T02:08:14.357Z,21.04
2018-08-10T02:09:14.338Z,21.03
2018-08-10T02:10:14.327Z,21.03
2018-08-10T02:11:14.314Z,21.01
2018-08-10T02:12:14.300Z,20.97
2018-08-10T02:13:14.290Z,21.01
2018-08-10T02:14:14.276Z,21.03
2018-08-10T02:15:14.265Z,21.06
2018-08-10T02:16:14.255Z,20.98
2018-08-10T02:17:14.250Z,20.97
2018-08-10T02:18:14.227Z,21.04
2018-08-10T02:19:14.220Z,21.03
2018-08-10T02:20:14.209Z,20.97
2018-08-10T02:21:14.192Z,21.01
2018-08-10T02:22:14.178Z,21.07
2018-08-10T02:23:14.164Z,21.09
2018-08-10T02:24:14.152Z,20.98
2018-08-10T02:25:14.140Z,20.98
2018-08-10T02:26:14.132Z,21.03
2018-08-10T02:27:14.133Z,20.98
2018-08-10T02:28:14.103Z,20.92
2018-08-10T02:29:14.091Z,20.92
2018-08-10T02:30:14.081Z,21.01
2018-08-10T02:31:14.071Z,20.97
2018-08-10T02:32:14.053Z,20.97
2018-08-10T02:33:14.041Z,20.98
2018-08-10T02:34:14.027Z,20.97
2018-08-10T02:35:14.018Z,20.98
2018-08-10T02:36:14.003Z,20.98
2018-08-10T02:37:13.993Z,21.03
2018-08-10T02:38:13.984Z,20.97
2018-08-10T02:39:13.966Z,20.94
2018-08-10T02:40:13.959Z,20.91
2018-08-10T02:41:13.942Z,20.92
2018-08-10T02:42:13.931Z,20.94
2018-08-10T02:43:13.917Z,20.92
2018-08-10T02:44:13.908Z,20.94
2018-08-10T02:45:13.894Z,20.98
2018-08-10T02:46:13.881Z,20.98
2018-08-10T02:47:13.869Z,20.97
2018-08-10T02:48:13.854Z,21.07
2018-08-10T02:49:13.844Z,21.01
2018-08-10T02:50:13.828Z,20.92
2018-08-10T02:51:13.819Z,20.97
2018-08-10T02:52:13.806Z,20.94
2018-08-10T02:53:13.795Z,20.95
2018-08-10T02:54:13.779Z,20.95
2018-08-10T02:55:13.770Z,20.95
2018-08-10T02:56:13.758Z,20.92
2018-08-10T02:57:13.742Z,20.91
2018-08-10T02:58:13.731Z,20.91
2018-08-10T02:59:13.718Z,20.99
2018-08-10T03:00:13.932Z,20.91
2018-08-10T03:01:13.696Z,20.99
2018-08-10T03:03:11.419Z,20.92
2018-08-10T03:04:11.406Z,20.95
2018-08-10T03:05:11.394Z,20.98
2018-08-10T03:06:11.379Z,20.91
2018-08-10T03:07:11.370Z,20.95
2018-08-10T03:08:11.359Z,20.97
2018-08-10T03:09:11.352Z,20.95
2018-08-10T03:10:11.333Z,20.92
2018-08-10T03:11:11.323Z,20.97
2018-08-10T03:12:11.306Z,20.98
2018-08-10T03:13:11.295Z,20.98
2018-08-10T03:14:11.283Z,20.94
2018-08-10T03:15:11.276Z,20.98
2018-08-10T03:16:11.256Z,20.99
2018-08-10T03:17:11.243Z,21.04
2018-08-10T03:18:11.230Z,20.98
2018-08-10T03:19:11.217Z,21.07
2018-08-10T03:20:11.206Z,21.07
2018-08-10T03:21:11.192Z,20.95
2018-08-10T03:22:11.209Z,21.07
2018-08-10T03:23:11.169Z,21.07
2018-08-10T03:24:11.159Z,21.03
2018-08-10T03:25:11.141Z,21.12
2018-08-10T03:26:11.131Z,21.16
2018-08-10T03:27:11.119Z,21.07
2018-08-10T03:28:11.110Z,21.03
2018-08-10T03:29:11.097Z,21.09
2018-08-10T03:30:11.080Z,21.06
2018-08-10T03:31:11.068Z,21.09
2018-08-10T03:32:11.055Z,21.16
2018-08-10T03:33:11.043Z,21.16
2018-08-10T03:34:11.029Z,21.06
2018-08-10T03:35:11.016Z,21.13
2018-08-10T03:36:11.004Z,21.17
2018-08-10T03:37:10.993Z,21.13
2018-08-10T03:38:10.980Z,21.14
2018-08-10T03:39:10.972Z,21.17
2018-08-10T03:40:10.957Z,21.14
2018-08-10T03:41:10.941Z,21.14
2018-08-10T03:42:10.929Z,21.17
2018-08-10T03:43:10.916Z,21.17
2018-08-10T03:44:10.904Z,21.22
2018-08-10T03:45:10.892Z,21.28
2018-08-10T03:46:10.878Z,21.22
2018-08-10T03:47:10.875Z,21.22
2018-08-10T03:48:10.856Z,21.22
2018-08-10T03:49:10.842Z,21.24
2018-08-10T03:50:10.834Z,21.22
2018-08-10T03:51:10.815Z,21.22
2018-08-10T03:52:10.805Z,21.28
2018-08-10T03:53:10.792Z,21.24
2018-08-10T03:54:10.779Z,21.28
2018-08-10T03:55:10.767Z,21.25
2018-08-10T03:56:10.755Z,21.28
2018-08-10T03:57:10.745Z,21.25
2018-08-10T03:58:10.730Z,21.21
2018-08-10T03:59:10.718Z,21.22
2018-08-10T04:00:10.706Z,21.28
2018-08-10T04:01:10.691Z,21.25
2018-08-10T04:02:10.680Z,21.28
2018-08-10T04:03:10.668Z,21.32
2018-08-10T04:04:10.656Z,21.28
2018-08-10T04:05:10.645Z,21.38
2018-08-10T04:06:10.628Z,21.37
2018-08-10T04:07:10.618Z,21.38
2018-08-10T04:08:10.605Z,21.44
2018-08-10T04:09:10.590Z,21.40
2018-08-10T04:10:10.578Z,21.42
2018-08-10T04:11:10.566Z,21.47
2018-08-10T04:12:13.175Z,21.52
2018-08-10T04:13:10.541Z,21.50
2018-08-10T04:14:10.529Z,21.46
2018-08-10T04:15:10.519Z,21.52
2018-08-10T04:16:10.506Z,21.53
2018-08-10T04:17:10.492Z,21.44
2018-08-10T04:18:10.482Z,21.56
2018-08-10T04:19:10.468Z,21.61
2018-08-10T04:20:10.455Z,21.52
2018-08-10T04:21:10.448Z,21.50
2018-08-10T04:22:10.433Z,21.58
2018-08-10T04:23:10.421Z,21.49
2018-08-10T04:24:10.410Z,21.61
2018-08-10T04:25:10.396Z,21.58
2018-08-10T04:26:10.382Z,21.59
2018-08-10T04:27:10.373Z,21.64
2018-08-10T04:28:10.356Z,21.58
2018-08-10T04:29:10.343Z,21.62
2018-08-10T04:30:10.350Z,21.64
2018-08-10T04:31:10.320Z,21.65
2018-08-10T04:32:10.318Z,21.64
2018-08-10T04:33:10.308Z,21.67
2018-08-10T04:34:10.286Z,21.68
2018-08-10T04:35:10.270Z,21.69
2018-08-10T04:46:44.150Z,21.75
2018-08-10T04:47:44.137Z,21.80
2018-08-10T04:48:44.133Z,21.82
2018-08-10T04:49:44.113Z,21.82
2018-08-10T04:50:44.101Z,21.79
2018-08-10T04:51:44.091Z,21.80
2018-08-10T04:52:44.078Z,21.88
2018-08-10T04:53:44.065Z,21.83
2018-08-10T04:54:44.057Z,21.77
2018-08-10T04:55:44.040Z,21.80
2018-08-10T04:56:44.031Z,21.72
2018-08-10T04:57:44.018Z,21.84
2018-08-10T04:58:44.006Z,21.75
2018-08-10T04:59:43.993Z,21.84
2018-08-10T05:00:43.980Z,21.83
2018-08-10T05:01:43.971Z,21.79
2018-08-10T05:02:43.956Z,21.80
2018-08-10T05:03:43.985Z,21.80
2018-08-10T05:04:43.932Z,21.83
2018-08-10T05:05:43.919Z,21.80
2018-08-10T05:06:43.910Z,21.77
2018-08-10T05:07:43.894Z,21.84
2018-08-10T05:08:43.895Z,21.74
2018-08-10T05:09:43.917Z,21.88
2018-08-10T05:10:43.858Z,21.90
2018-08-10T05:11:43.847Z,21.83
2018-08-10T05:12:43.832Z,21.88
2018-08-10T05:13:43.821Z,21.86
2018-08-10T05:14:43.812Z,21.91
2018-08-10T05:15:43.846Z,21.80
2018-08-10T05:16:43.783Z,21.86
2018-08-10T05:17:43.776Z,21.84
2018-08-10T05:18:43.758Z,21.91
2018-08-10T05:19:43.751Z,21.84
2018-08-10T05:20:43.740Z,21.90
2018-08-10T05:21:43.724Z,21.82
2018-08-10T05:22:43.713Z,21.86
2018-08-10T05:23:43.699Z,21.82
2018-08-10T05:24:43.723Z,21.92
2018-08-10T05:25:43.674Z,21.96
2018-08-10T05:26:43.661Z,21.98
2018-08-10T05:27:43.663Z,21.91
2018-08-10T05:28:43.645Z,22.02
2018-08-10T05:29:43.623Z,21.99
2018-08-10T05:30:43.616Z,21.91
2018-08-10T05:31:43.599Z,21.91
2018-08-10T05:32:43.592Z,21.91
2018-08-10T05:33:47.612Z,22.02
2018-08-10T05:34:43.576Z,22.00
2018-08-10T05:35:43.551Z,22.03
2018-08-10T05:36:43.538Z,22.05
2018-08-10T05:37:43.525Z,22.09
2018-08-10T05:38:43.517Z,22.02
2018-08-10T05:39:43.502Z,22.06
2018-08-10T05:40:43.490Z,22.05
2018-08-10T05:41:43.478Z,22.06
2018-08-10T05:42:43.467Z,22.10
2018-08-10T05:43:43.454Z,22.07
2018-08-10T05:44:43.446Z,22.05
2018-08-10T05:45:43.427Z,22.07
2018-08-10T05:46:43.463Z,22.06
2018-08-10T05:47:43.406Z,22.05
2018-08-10T05:48:43.391Z,22.07
2018-08-10T05:49:43.380Z,22.10
2018-08-10T05:50:43.369Z,22.06
2018-08-10T05:51:43.365Z,22.14
2018-08-10T05:52:43.343Z,22.17
2018-08-10T05:53:43.330Z,22.21
2018-08-10T05:54:43.319Z,22.20
2018-08-10T05:55:43.306Z,22.17
2018-08-10T05:56:43.296Z,22.14
2018-08-10T05:57:43.284Z,22.12
2018-08-10T05:58:43.269Z,22.12
2018-08-10T05:59:43.255Z,22.03
2018-08-10T06:00:43.311Z,22.03
2018-08-10T06:01:43.233Z,22.07
2018-08-10T06:02:45.841Z,22.03
2018-08-10T06:03:46.001Z,22.06
2018-08-10T06:05:25.731Z,22.14
2018-08-10T06:06:28.338Z,22.07
2018-08-10T06:07:26.108Z,22.06
2018-08-10T06:11:50.872Z,21.98
2018-08-10T06:14:43.395Z,21.94
2018-08-10T06:15:43.386Z,21.99
2018-08-10T06:22:22.048Z,22.03
2018-08-10T06:41:43.940Z,21.88
2018-08-10T06:42:43.917Z,21.82
2018-08-10T06:43:43.910Z,21.77
2018-08-10T06:46:27.162Z,21.69
2018-08-10T06:47:27.151Z,21.62
2018-08-10T06:48:27.141Z,21.59
2018-08-10T06:49:27.125Z,21.65
2018-08-10T06:50:27.113Z,21.67
2018-08-10T06:51:27.109Z,21.49
2018-08-10T06:52:27.094Z,21.52
2018-08-10T06:53:27.076Z,21.61
2018-08-10T06:54:29.685Z,21.50
2018-08-10T06:55:27.054Z,21.59
2018-08-10T06:57:09.566Z,21.50
2018-08-10T06:58:09.556Z,21.49
2018-08-10T06:59:09.548Z,21.54
2018-08-10T07:00:09.531Z,21.46
2018-08-10T07:01:09.597Z,21.47
2018-08-10T07:02:09.511Z,21.52
2018-08-10T07:03:09.496Z,21.53
2018-08-10T07:04:09.488Z,21.46
2018-08-10T07:05:09.473Z,21.54
2018-08-10T07:06:09.456Z,21.49
2018-08-10T07:07:09.444Z,21.47
2018-08-10T07:08:09.432Z,21.46
2018-08-10T07:09:09.418Z,21.53
2018-08-10T07:10:09.411Z,21.47
2018-08-10T07:11:09.400Z,21.44
2018-08-10T07:13:52.649Z,21.49
2018-08-10T07:14:52.640Z,21.44
2018-08-10T07:15:52.633Z,21.38
2018-08-10T07:16:52.613Z,21.44
2018-08-10T07:17:52.605Z,21.40
2018-08-10T07:18:52.590Z,21.34
2018-08-10T07:19:52.581Z,21.43
2018-08-10T07:20:52.564Z,21.46
2018-08-10T07:21:52.554Z,21.44
2018-08-10T07:22:52.541Z,21.44
2018-08-10T07:23:52.524Z,21.42
2018-08-10T07:24:52.517Z,21.46
2018-08-10T07:25:52.500Z,21.46
2018-08-10T07:26:52.536Z,21.52
2018-08-10T07:27:53.688Z,21.49
2018-08-10T07:29:40.003Z,21.50
2018-08-10T08:41:14.055Z,22.62
2018-08-10T08:48:46.456Z,22.77
2018-08-10T08:49:46.445Z,22.97
2018-08-10T08:50:46.432Z,22.98
2018-08-10T08:51:46.424Z,23.00
2018-08-10T08:52:46.407Z,23.13
2018-08-10T08:53:46.402Z,23.20
2018-08-10T08:54:46.385Z,23.25
2018-08-10T08:55:46.371Z,23.25
2018-08-10T08:56:46.362Z,23.28
2018-08-10T08:57:46.350Z,23.35
2018-08-10T08:58:46.339Z,23.40
2018-08-10T08:59:46.330Z,23.38
2018-08-10T09:00:46.320Z,23.50
2018-08-10T09:01:46.304Z,23.75
2018-08-10T09:02:46.295Z,23.84
2018-08-10T09:03:46.285Z,23.98
2018-08-10T09:04:46.277Z,24.05
2018-08-10T09:05:46.262Z,24.10
2018-08-10T09:06:46.251Z,24.25
2018-08-10T09:07:46.289Z,24.25
2018-08-10T09:08:46.228Z,24.34
2018-08-10T09:09:46.220Z,24.18
2018-08-10T09:10:46.205Z,24.15
2018-08-10T09:11:46.195Z,24.16
2018-08-10T09:12:46.186Z,24.08
2018-08-10T09:13:46.175Z,23.93
2018-08-10T09:14:46.169Z,23.83
2018-08-10T09:15:46.157Z,23.66
2018-08-10T09:16:46.144Z,23.69
2018-08-10T09:17:46.136Z,23.53
2018-08-10T09:18:46.126Z,23.42
2018-08-10T09:19:46.109Z,23.32
2018-08-10T09:20:46.102Z,23.25
2018-08-10T09:21:46.094Z,23.31
2018-08-10T09:22:46.080Z,23.32
2018-08-10T09:23:46.071Z,23.35
2018-08-10T09:24:46.068Z,23.38
2018-08-10T09:25:46.049Z,23.42
2018-08-10T09:26:46.038Z,23.39
2018-08-10T09:27:46.028Z,23.32
2018-08-10T09:28:46.016Z,23.15
2018-08-10T09:29:46.006Z,23.12
2018-08-10T09:30:45.992Z,23.19
2018-08-10T09:31:45.986Z,23.15
2018-08-10T09:32:45.977Z,23.07
2018-08-10T09:33:45.968Z,23.05
2018-08-10T09:34:45.954Z,23.07
2018-08-10T09:35:45.948Z,23.10
2018-08-10T09:36:45.929Z,23.05
2018-08-10T09:37:45.920Z,23.10
2018-08-10T09:38:45.908Z,23.16
2018-08-10T09:39:45.899Z,23.00
2018-08-10T09:40:45.886Z,23.01
2018-08-10T09:41:45.878Z,23.00
2018-08-10T09:42:45.868Z,23.07
2018-08-10T09:43:45.856Z,23.15
2018-08-10T09:44:45.845Z,23.16
2018-08-10T09:45:45.834Z,23.16
2018-08-10T09:46:45.822Z,23.20
2018-08-10T09:47:45.815Z,23.17
2018-08-10T09:48:45.801Z,23.16
2018-08-10T09:49:45.796Z,23.17
2018-08-10T09:50:45.780Z,23.22
2018-08-10T09:51:45.771Z,23.31
2018-08-10T09:52:45.759Z,23.38
2018-08-10T09:53:45.751Z,23.48
2018-08-10T09:54:45.737Z,23.40
2018-08-10T09:55:45.732Z,23.48
2018-08-10T09:56:45.717Z,23.51
2018-08-10T09:57:45.732Z,23.68
2018-08-10T09:58:45.699Z,23.91
2018-08-10T09:59:45.731Z,24.18
2018-08-10T10:00:45.673Z,24.10
2018-08-10T10:01:45.668Z,24.25
2018-08-10T10:02:45.661Z,24.35
2018-08-10T10:03:45.646Z,24.34
2018-08-10T10:04:45.636Z,24.37
2018-08-10T10:05:45.627Z,24.45
2018-08-10T10:06:45.613Z,24.52
2018-08-10T10:07:45.612Z,24.55
2018-08-10T10:08:45.599Z,24.58
2018-08-10T10:09:45.585Z,24.49
2018-08-10T10:10:45.575Z,24.47
2018-08-10T10:11:45.565Z,24.31
2018-08-10T10:12:45.557Z,24.22
2018-08-10T10:13:45.544Z,24.24
2018-08-10T10:14:45.536Z,24.28
2018-08-10T10:15:45.526Z,24.31
2018-08-10T10:16:45.516Z,24.30
2018-08-10T10:17:45.506Z,24.30
2018-08-10T10:18:45.498Z,24.39
2018-08-10T10:19:45.486Z,24.57
2018-08-10T10:20:45.510Z,24.65
2018-08-10T10:21:45.466Z,24.84
2018-08-10T10:22:45.456Z,24.80
2018-08-10T10:23:45.449Z,24.73
2018-08-10T10:24:45.440Z,24.81
2018-08-10T10:25:45.436Z,25.17
2018-08-10T10:26:45.419Z,25.38
2018-08-10T10:27:45.409Z,25.55
2018-08-10T10:28:45.401Z,25.88
2018-08-10T10:29:45.393Z,26.18
2018-08-10T10:30:45.388Z,26.20
2018-08-10T10:31:45.391Z,26.37
2018-08-10T10:32:45.470Z,26.67
2018-08-10T10:33:45.358Z,26.92
2018-08-10T10:34:45.351Z,27.14
2018-08-10T10:35:45.342Z,27.04
2018-08-10T10:36:45.337Z,26.91
2018-08-10T10:37:45.330Z,27.14
2018-08-10T10:38:45.318Z,27.19
2018-08-10T10:39:45.314Z,27.19
2018-08-10T10:40:45.304Z,27.07
2018-08-10T10:41:45.313Z,26.94
2018-08-10T10:42:45.291Z,26.97
2018-08-10T10:43:45.281Z,27.18
2018-08-10T10:44:45.275Z,27.40
2018-08-10T10:45:45.267Z,27.31
2018-08-10T10:46:45.260Z,27.31
2018-08-10T10:47:45.253Z,27.00
2018-08-10T10:48:45.248Z,26.85
2018-08-10T10:49:45.241Z,26.55
2018-08-10T10:50:45.242Z,26.39
2018-08-10T10:51:45.226Z,26.21
2018-08-10T10:52:45.225Z,26.07
2018-08-10T10:53:45.212Z,26.06
2018-08-10T10:54:45.204Z,26.02
2018-08-10T10:55:45.196Z,26.01
2018-08-10T10:56:45.281Z,25.90
2018-08-10T10:57:45.182Z,25.77
2018-08-10T10:58:45.170Z,25.76
2018-08-10T10:59:45.168Z,25.77
2018-08-10T11:00:45.161Z,25.85
2018-08-10T11:01:45.164Z,26.07
2018-08-10T11:02:45.143Z,26.18
2018-08-10T11:03:45.135Z,26.26
2018-08-10T11:04:45.130Z,26.28
2018-08-10T11:05:45.119Z,26.40
2018-08-10T11:06:45.113Z,26.62
2018-08-10T11:07:45.110Z,26.77
2018-08-10T11:08:45.103Z,26.88
2018-08-10T11:09:45.093Z,26.84
2018-08-10T11:10:45.085Z,26.94
2018-08-10T11:11:45.077Z,26.87
2018-08-10T11:12:45.074Z,26.87
2018-08-10T11:13:45.062Z,26.76
2018-08-10T11:14:45.057Z,26.70
2018-08-10T11:15:45.049Z,26.63
2018-08-10T11:16:45.045Z,26.65
2018-08-10T11:17:45.036Z,26.76
2018-08-10T11:18:45.027Z,26.80
2018-08-10T11:19:45.020Z,26.84
2018-08-10T11:20:45.020Z,27.04
2018-08-10T11:21:45.009Z,26.95
2018-08-10T11:22:45.003Z,26.88
2018-08-10T11:23:44.996Z,26.97
2018-08-10T11:24:44.987Z,27.13
2018-08-10T11:25:45.085Z,27.36
2018-08-10T11:26:44.973Z,27.37
2018-08-10T11:27:44.966Z,27.46
2018-08-10T11:28:44.958Z,27.55
2018-08-10T11:29:44.951Z,27.79
2018-08-10T11:30:44.946Z,27.88
2018-08-10T11:31:44.938Z,27.94
2018-08-10T11:32:44.934Z,28.14
2018-08-10T11:33:44.927Z,28.36
2018-08-10T11:34:44.930Z,28.64
2018-08-10T11:35:45.119Z,28.81
2018-08-10T11:36:44.912Z,29.11
2018-08-10T11:37:44.907Z,29.43
2018-08-10T11:38:44.896Z,29.90
2018-08-10T11:39:44.892Z,30.05
2018-08-10T11:40:44.889Z,30.29
2018-08-10T11:41:44.883Z,30.53
2018-08-10T11:42:44.879Z,30.97
2018-08-10T11:43:44.871Z,30.86
2018-08-10T11:44:44.865Z,31.13
2018-08-10T11:45:44.870Z,30.80
2018-08-10T11:46:44.858Z,30.60
2018-08-10T11:47:44.853Z,30.23
2018-08-10T11:48:44.848Z,30.02
2018-08-10T11:49:44.846Z,29.70
2018-08-10T11:50:44.836Z,29.63
2018-08-10T11:51:44.837Z,30.05
2018-08-10T11:52:44.828Z,30.58
2018-08-10T11:53:44.822Z,30.84
2018-08-10T11:54:44.818Z,31.25
2018-08-10T11:55:44.813Z,31.66
2018-08-10T11:56:44.805Z,31.96
2018-08-10T11:57:44.802Z,32.14
2018-08-10T11:58:44.811Z,32.51
2018-08-10T11:59:44.793Z,32.56
2018-08-10T12:00:44.787Z,32.87
2018-08-10T12:01:44.815Z,32.89
2018-08-10T12:02:44.783Z,32.94
2018-08-10T12:03:44.775Z,32.96
2018-08-10T12:04:44.770Z,33.14
2018-08-10T12:05:44.787Z,33.32
2018-08-10T12:06:44.760Z,33.38
2018-08-10T12:07:44.756Z,33.09
2018-08-10T12:08:44.752Z,32.94
2018-08-10T12:09:44.749Z,32.81
2018-08-10T12:10:44.747Z,32.59
2018-08-10T12:11:44.743Z,32.38
2018-08-10T12:12:44.754Z,31.91
2018-08-10T12:13:44.737Z,31.65
2018-08-10T12:14:44.726Z,31.35
2018-08-10T12:15:44.727Z,31.25
2018-08-10T12:16:44.719Z,31.26
2018-08-10T12:17:44.714Z,31.39
2018-08-10T12:18:44.711Z,31.23
2018-08-10T12:19:44.707Z,31.38
2018-08-10T12:20:44.700Z,31.38
2018-08-10T12:21:44.695Z,31.36
2018-08-10T12:22:44.691Z,31.48
2018-08-10T12:23:44.686Z,31.56
2018-08-10T12:24:44.738Z,31.56
2018-08-10T12:25:44.677Z,31.54
2018-08-10T12:26:44.674Z,31.53
2018-08-10T12:27:44.672Z,31.61
2018-08-10T12:28:44.663Z,31.57
2018-08-10T12:29:44.654Z,31.63
2018-08-10T12:30:44.648Z,31.68
2018-08-10T12:31:44.643Z,31.76
2018-08-10T12:32:44.639Z,31.80
2018-08-10T12:33:44.637Z,31.68
2018-08-10T12:34:44.640Z,31.85
2018-08-10T12:35:44.620Z,32.00
2018-08-10T12:36:44.620Z,32.11
2018-08-10T12:37:44.613Z,32.13
2018-08-10T12:38:44.608Z,32.00
2018-08-10T12:39:44.601Z,32.00
2018-08-10T12:40:44.595Z,31.96
2018-08-10T12:41:44.590Z,31.91
2018-08-10T12:42:44.585Z,31.85
2018-08-10T12:43:44.575Z,31.93
2018-08-10T12:44:44.571Z,31.65
2018-08-10T12:45:44.565Z,31.62
2018-08-10T12:46:44.561Z,31.58
2018-08-10T12:47:44.733Z,31.70
2018-08-10T12:48:44.548Z,31.72
2018-08-10T12:49:44.538Z,31.48
2018-08-10T12:50:44.615Z,31.32
2018-08-10T12:51:44.538Z,31.29
2018-08-10T12:52:44.524Z,31.29
2018-08-10T12:53:44.513Z,31.09
2018-08-10T12:54:44.513Z,30.99
2018-08-10T12:55:44.503Z,30.51
2018-08-10T12:56:44.494Z,30.38
2018-08-10T12:57:44.492Z,30.27
2018-08-10T12:58:44.486Z,30.27
2018-08-10T12:59:44.475Z,30.22
2018-08-10T13:00:44.469Z,30.00
2018-08-10T13:01:44.467Z,30.01
2018-08-10T13:02:44.609Z,30.16
2018-08-10T13:03:44.448Z,30.37
2018-08-10T13:04:44.441Z,30.42
2018-08-10T13:05:44.447Z,30.38
2018-08-10T13:06:44.434Z,30.29
2018-08-10T13:07:44.423Z,30.02
2018-08-10T13:08:44.419Z,29.87
2018-08-10T13:09:44.412Z,29.79
2018-08-10T13:10:44.474Z,29.67
2018-08-10T13:11:44.396Z,29.57
2018-08-10T13:12:44.390Z,29.49
2018-08-10T13:13:44.376Z,29.33
2018-08-10T13:14:44.370Z,29.37
2018-08-10T13:15:44.363Z,29.27
2018-08-10T13:16:44.355Z,29.49
2018-08-10T13:17:44.353Z,29.42
2018-08-10T13:18:44.348Z,29.41
2018-08-10T13:19:44.333Z,29.30
2018-08-10T13:20:44.331Z,29.15
2018-08-10T13:21:44.323Z,29.11
2018-08-10T13:22:44.312Z,29.09
2018-08-10T13:23:44.351Z,29.14
2018-08-10T13:24:44.298Z,29.16
2018-08-10T13:25:44.291Z,29.30
2018-08-10T13:26:44.278Z,29.33
2018-08-10T13:27:44.274Z,29.36
2018-08-10T13:28:44.271Z,29.31
2018-08-10T13:29:44.259Z,29.36
2018-08-10T13:30:44.250Z,29.37
2018-08-10T13:31:44.242Z,29.51
2018-08-10T13:32:44.233Z,29.49
2018-08-10T13:33:44.230Z,29.30
2018-08-10T13:34:44.220Z,29.24
2018-08-10T13:35:44.210Z,29.09
2018-08-10T13:36:44.209Z,28.98
2018-08-10T13:37:44.196Z,29.00
2018-08-10T13:38:44.185Z,28.95
2018-08-10T13:39:44.187Z,29.00
2018-08-10T13:40:44.209Z,28.98
2018-08-10T13:41:44.161Z,28.96
2018-08-10T13:42:44.150Z,28.86
2018-08-10T13:43:44.298Z,28.95
2018-08-10T13:44:44.133Z,28.92
2018-08-10T13:45:44.130Z,28.81
2018-08-10T13:46:44.119Z,28.71
2018-08-10T13:47:44.114Z,28.68
2018-08-10T13:48:44.104Z,28.62
2018-08-10T13:49:44.093Z,28.62
2018-08-10T13:50:44.088Z,28.59
2018-08-10T13:51:44.080Z,28.62
2018-08-10T13:52:44.071Z,28.62
2018-08-10T13:53:44.064Z,28.78
2018-08-10T13:54:44.051Z,28.81
2018-08-10T13:55:44.046Z,28.83
2018-08-10T13:56:44.032Z,29.00
2018-08-10T13:57:44.024Z,28.98
2018-08-10T13:58:44.076Z,28.96
2018-08-10T13:59:44.005Z,29.08
2018-08-10T14:00:44.007Z,29.09
2018-08-10T14:01:43.996Z,29.12
2018-08-10T14:02:43.983Z,29.23
2018-08-10T14:03:43.974Z,29.23
2018-08-10T14:04:43.964Z,29.36
2018-08-10T14:05:43.987Z,29.30
2018-08-10T14:06:43.945Z,29.46
2018-08-10T14:07:43.940Z,29.41
2018-08-10T14:08:43.937Z,29.36
2018-08-10T14:09:43.925Z,29.41
2018-08-10T14:10:43.920Z,29.36
2018-08-10T14:11:43.909Z,29.45
2018-08-10T14:12:43.899Z,29.33
2018-08-10T14:13:43.889Z,29.24
2018-08-10T14:14:43.882Z,29.30
2018-08-10T14:15:43.929Z,29.14
2018-08-10T14:16:43.861Z,29.18
2018-08-10T14:17:43.854Z,29.09
2018-08-10T14:18:43.846Z,29.15
2018-08-10T14:19:43.835Z,29.00
2018-08-10T14:20:43.829Z,28.83
2018-08-10T14:21:43.816Z,28.81
2018-08-10T14:22:43.805Z,28.73
2018-08-10T14:23:43.797Z,28.54
2018-08-10T14:24:43.790Z,28.39
2018-08-10T14:25:43.781Z,28.33
2018-08-10T14:26:43.773Z,28.27
2018-08-10T14:27:43.766Z,28.25
2018-08-10T14:28:43.766Z,28.24
2018-08-10T14:29:43.749Z,28.14
2018-08-10T14:30:43.741Z,28.14
2018-08-10T14:31:43.744Z,28.21
2018-08-10T14:32:43.717Z,28.24
2018-08-10T14:33:43.706Z,28.18
2018-08-10T14:34:43.700Z,28.27
2018-08-10T14:35:43.689Z,28.36
2018-08-10T14:36:43.677Z,28.30
2018-08-10T14:37:43.670Z,28.39
2018-08-10T14:38:43.660Z,28.33
2018-08-10T14:39:43.658Z,28.40
2018-08-10T14:40:43.644Z,28.48
2018-08-10T14:41:43.637Z,28.31
2018-08-10T14:42:43.630Z,28.30
2018-08-10T14:43:43.617Z,28.22
2018-08-10T14:44:43.606Z,28.27
2018-08-10T14:45:43.598Z,28.21
2018-08-10T14:46:43.604Z,28.21
2018-08-10T14:47:43.582Z,28.30
2018-08-10T14:48:43.569Z,28.41
2018-08-10T14:49:43.557Z,28.44
2018-08-10T14:50:43.552Z,28.52
2018-08-10T14:51:43.541Z,28.56
2018-08-10T14:52:43.532Z,28.58
2018-08-10T14:53:43.569Z,28.55
2018-08-10T14:54:43.521Z,28.62
2018-08-10T14:55:43.505Z,28.73
2018-08-10T14:56:43.500Z,28.78
2018-08-10T14:57:43.482Z,28.74
2018-08-10T14:58:43.473Z,28.76
2018-08-10T14:59:43.463Z,28.59
2018-08-10T15:00:43.492Z,28.43
2018-08-10T15:01:43.444Z,28.34
2018-08-10T15:02:43.437Z,28.33
2018-08-10T15:03:43.426Z,28.36
2018-08-10T15:04:43.420Z,28.39
2018-08-10T15:05:43.416Z,28.37
2018-08-10T15:06:43.396Z,28.37
2018-08-10T15:07:43.387Z,28.36
2018-08-10T15:08:43.379Z,28.40
2018-08-10T15:09:43.368Z,28.46
2018-08-10T15:10:43.358Z,28.44
2018-08-10T15:11:43.362Z,28.43
2018-08-10T15:12:43.686Z,28.51
2018-08-10T15:13:43.330Z,28.48
2018-08-10T15:14:43.370Z,28.55
2018-08-10T15:16:33.566Z,28.58
2018-08-10T15:17:33.458Z,28.74
2018-08-10T15:18:33.448Z,28.70
2018-08-10T15:19:33.438Z,28.77
2018-08-10T15:20:33.428Z,28.78
2018-08-10T15:21:33.421Z,28.76
2018-08-10T15:22:33.411Z,28.74
2018-08-10T15:23:33.401Z,28.80
2018-08-10T15:24:33.393Z,28.83
2018-08-10T15:25:33.389Z,28.86
2018-08-10T15:26:33.377Z,28.61
2018-08-10T15:27:33.368Z,28.58
2018-08-10T15:28:33.401Z,28.36
2018-08-10T15:29:33.349Z,28.36
2018-08-10T15:30:33.369Z,28.18
2018-08-10T15:31:33.337Z,28.18
2018-08-10T15:32:33.331Z,28.22
2018-08-10T15:33:33.320Z,28.09
2018-08-10T15:34:33.320Z,28.04